Time;durP1;ratioP1;P1;durP2;ratioP2;P2;SDS_P1;SDS_P2;PMS_P1;PMS_P2;Temp;Humidity;BMP_temperature;BMP_pressure;BME280_temperature;BME280_humidity;BME280_pressure;Samples;Min_cycle;Max_cycle;Signal;HPM_P1;HPM_P2
2021/06/04 04:40:00;;;;;;;3.62;2.70;;;;;;;13.68;73.15;100358.94;1702553;81;21194;-41
2021/06/04 04:42:32;;;;;;;8.68;2.83;;;;;;;13.70;73.05;100361.12;1710954;81;21721;-38
2021/06/04 04:45:01;;;;;;;4.85;2.60;;;;;;;13.71;73.45;100357.61;1699876;82;21129;-38
2021/06/04 04:49:57;;;;;;;5.65;2.35;;;;;;;13.72;72.92;100359.34;1725907;82;21106;-39
2021/06/04 04:52:27;;;;;;;9.55;2.80;;;;;;;13.73;72.86;100356.27;1725480;82;21134;-40
2021/06/04 04:55:00;;;;;;;15.08;2.80;;;;;;;13.75;73.10;100365.89;1710077;82;22070;-39
2021/06/04 04:57:30;;;;;;;5.22;2.30;;;;;;;13.78;73.18;100366.28;1715130;82;21173;-39
2021/06/04 04:59:59;;;;;;;5.90;2.60;;;;;;;13.82;73.33;100366.23;1699656;82;21067;-43
2021/06/04 05:02:45;;;;;;;7.97;3.00;;;;;;;13.87;73.07;100365.32;1715073;82;21151;-38
2021/06/04 05:05:22;;;;;;;7.83;2.72;;;;;;;13.93;73.10;100367.42;1718278;81;21099;-40
2021/06/04 05:15:13;;;;;;;6.55;2.35;;;;;;;14.36;72.29;100370.34;1743055;80;21580;-42
2021/06/04 05:18:20;;;;;;;5.83;2.33;;;;;;;14.57;71.83;100372.28;1653064;84;21271;-43
2021/06/04 05:21:17;;;;;;;9.90;2.20;;;;;;;14.80;69.52;100374.11;1689483;76;21510;31
2021/06/04 05:23:53;;;;;;;4.85;2.50;;;;;;;15.01;66.49;100372.00;1676364;83;21481;-41
2021/06/04 05:26:33;;;;;;;2.95;2.08;;;;;;;15.22;65.02;100378.67;1697795;81;21067;-39
2021/06/04 05:29:21;;;;;;;4.40;3.35;;;;;;;15.34;64.82;100374.50;1669656;83;21069;-45
2021/06/04 05:31:52;;;;;;;5.80;2.17;;;;;;;15.45;63.70;100379.13;1646858;84;21123;-45
2021/06/04 05:34:28;;;;;;;11.18;2.47;;;;;;;15.55;64.08;100376.75;1626386;84;21364;-43
2021/06/04 05:37:01;;;;;;;3.42;2.35;;;;;;;15.66;64.26;100377.45;1681941;83;22999;-40
2021/06/04 05:39:31;;;;;;;5.67;2.47;;;;;;;15.74;62.71;100377.73;1670446;82;21047;-39
2021/06/04 05:44:54;;;;;;;7.97;2.22;;;;;;;15.78;62.36;100380.28;1674760;82;21216;-41
2021/06/04 05:51:41;;;;;;;10.60;2.50;;;;;;;15.93;63.02;100379.95;1761263;76;22409;-38
2021/06/04 05:59:34;;;;;;;7.67;2.52;;;;;;;16.40;62.06;100382.02;1742838;77;21184;-41
2021/06/04 06:07:56;;;;;;;8.10;2.35;;;;;;;16.69;58.57;100376.52;1708752;79;21190;-42
2021/06/04 06:10:28;;;;;;;8.98;2.40;;;;;;;16.71;59.61;100374.31;1671096;83;21151;-41
2021/06/04 06:13:10;;;;;;;8.30;2.02;;;;;;;16.78;60.07;100373.70;1637900;84;21536;-42
2021/06/04 06:16:00;;;;;;;7.45;2.22;;;;;;;16.93;60.77;100372.44;1639480;78;21252;-40
2021/06/04 06:18:50;;;;;;;14.45;2.67;;;;;;;17.06;60.17;100373.03;1626151;84;21062;-41
2021/06/04 06:25:43;;;;;;;4.83;2.27;;;;;;;17.36;59.62;100369.58;1649652;84;22050;-40
2021/06/04 06:28:28;;;;;;;10.30;2.58;;;;;;;17.59;57.19;100370.73;1685087;82;21169;-38
2021/06/04 06:37:50;;;;;;;3.87;1.90;;;;;;;17.90;57.38;100363.69;1659467;83;21433;-35
2021/06/04 06:41:28;;;;;;;2.72;1.80;;;;;;;17.99;57.51;100370.52;1683243;83;21099;-37
2021/06/04 06:44:05;;;;;;;6.17;2.12;;;;;;;18.08;55.45;100364.92;1682649;82;21471;-38
2021/06/04 06:46:42;;;;;;;5.92;2.20;;;;;;;18.14;53.39;100377.12;1675507;84;21145;-39
2021/06/04 06:49:32;;;;;;;8.80;1.72;;;;;;;18.13;51.90;100368.31;1679205;83;21637;-40
2021/06/04 06:52:24;;;;;;;7.20;2.20;;;;;;;18.13;52.38;100370.09;1650606;84;21134;-40
2021/06/04 06:55:31;;;;;;;6.83;1.65;;;;;;;18.18;53.35;100369.05;1670942;83;21521;-42
2021/06/04 07:01:18;;;;;;;8.50;1.80;;;;;;;18.35;51.83;100374.70;1679768;82;21114;-39
2021/06/04 07:07:01;;;;;;;8.28;1.65;;;;;;;18.57;50.97;100376.69;1596379;87;21810;-40
2021/06/04 07:13:28;;;;;;;6.70;1.75;;;;;;;18.78;49.84;100374.69;1599168;86;21594;-41
2021/06/04 07:19:51;;;;;;;7.08;1.98;;;;;;;18.96;47.49;100373.24;1548667;89;21116;-43
2021/06/04 07:32:32;;;;;;;2.87;1.70;;;;;;;19.40;47.16;100365.53;1591617;88;21385;-41
2021/06/04 07:35:19;;;;;;;4.45;1.92;;;;;;;19.45;45.42;100364.92;1625372;85;21113;-41
2021/06/04 07:41:52;;;;;;;8.70;1.60;;;;;;;19.58;44.24;100371.55;1686922;79;21325;-41
2021/06/04 07:44:30;;;;;;;5.47;2.27;;;;;;;19.54;43.47;100365.93;1638724;84;22218;-41
2021/06/04 07:47:22;;;;;;;3.00;1.47;;;;;;;19.54;46.24;100368.58;1646254;84;21313;-42
2021/06/04 07:49:48;;;;;;;7.92;1.70;;;;;;;19.59;46.37;100373.27;1649830;84;21105;-40
2021/06/04 08:12:29;;;;;;;2.35;1.62;;;;;;;20.15;43.14;100366.80;1683233;80;21209;-41
2021/06/04 08:15:09;;;;;;;4.60;1.70;;;;;;;20.23;41.92;100369.15;1644133;84;21137;-42
2021/06/04 08:18:34;;;;;;;3.25;1.90;;;;;;;20.26;42.68;100361.08;1667674;80;22097;-40
2021/06/04 08:21:24;;;;;;;7.67;1.90;;;;;;;20.38;42.07;100364.58;1654746;85;21185;-41
2021/06/04 08:24:07;;;;;;;6.40;1.90;;;;;;;20.42;42.53;100369.72;1641333;83;21469;-39
2021/06/04 08:26:56;;;;;;;12.68;1.70;;;;;;;20.46;42.17;100365.16;1665987;84;21372;-39
2021/06/04 08:33:37;;;;;;;12.70;1.72;;;;;;;20.48;40.98;100373.96;1660105;84;21142;-40
2021/06/04 08:36:41;;;;;;;5.62;1.42;;;;;;;20.57;40.72;100372.25;1622615;85;21346;-41
2021/06/04 08:39:59;;;;;;;12.43;1.95;;;;;;;20.68;40.10;100368.70;1611005;85;21162;-39
2021/06/04 08:46:46;;;;;;;4.58;1.37;;;;;;;20.84;39.89;100360.97;1668916;80;22565;-39
2021/06/04 08:49:53;;;;;;;4.30;1.77;;;;;;;20.92;38.65;100360.64;1691985;83;21204;-39
2021/06/04 08:53:05;;;;;;;2.40;1.37;;;;;;;20.97;38.12;100362.18;1692418;82;21161;-41
2021/06/04 09:06:15;;;;;;;4.22;1.60;;;;;;;21.40;36.44;100358.20;1747872;80;21153;-38
2021/06/04 09:08:43;;;;;;;10.48;1.52;;;;;;;21.45;35.65;100366.39;1708551;81;21371;-39
2021/06/04 09:11:33;;;;;;;8.33;2.40;;;;;;;21.33;34.38;100362.91;1719591;80;21062;-39
2021/06/04 09:21:21;;;;;;;9.25;1.87;;;;;;;21.30;35.11;100368.38;1763156;78;21749;-38
2021/06/04 09:23:48;;;;;;;8.60;1.90;;;;;;;21.30;35.25;100364.38;1750110;81;21616;-38
2021/06/04 09:26:17;;;;;;;4.15;1.60;;;;;;;21.32;35.60;100361.17;1766277;80;21082;-39
2021/06/04 09:28:51;;;;;;;5.80;1.50;;;;;;;21.39;35.77;100368.42;1805794;78;21003;-39
2021/06/04 09:31:34;;;;;;;8.95;1.57;;;;;;;21.49;35.29;100367.96;1759565;79;21671;-38
2021/06/04 09:37:21;;;;;;;6.28;1.52;;;;;;;21.47;37.75;100371.64;1735246;80;21364;-38
2021/06/04 09:39:54;;;;;;;7.70;1.45;;;;;;;21.47;37.99;100376.49;1771619;79;21110;-38
2021/06/04 09:42:28;;;;;;;6.62;1.90;;;;;;;21.58;36.81;100365.38;1746164;80;21082;-39
2021/06/04 09:45:17;;;;;;;3.47;1.37;;;;;;;21.68;36.91;100368.47;1715499;81;21748;-39
2021/06/04 09:48:13;;;;;;;5.62;1.70;;;;;;;21.73;35.48;100364.67;1746267;80;21125;-39
2021/06/04 09:51:11;;;;;;;2.35;1.35;;;;;;;21.74;34.95;100370.42;1739038;80;21988;-38
2021/06/04 09:54:35;;;;;;;6.17;1.52;;;;;;;21.69;35.36;100358.25;1689556;82;21115;-40
2021/06/04 09:57:17;;;;;;;10.48;1.90;;;;;;;21.65;35.29;100364.16;1686576;83;21307;-40
2021/06/04 09:59:44;;;;;;;8.95;1.72;;;;;;;21.46;34.49;100369.45;1687610;83;21150;-39
2021/06/04 10:02:33;;;;;;;10.53;2.22;;;;;;;21.36;36.31;100365.45;1673641;84;21220;-39
2021/06/04 10:05:30;;;;;;;7.30;2.30;;;;;;;21.40;36.60;100366.19;1647249;84;21819;-40
2021/06/04 10:08:20;;;;;;;5.47;1.90;;;;;;;21.50;36.12;100362.17;1689520;83;21442;-38
2021/06/04 10:11:16;;;;;;;3.70;2.05;;;;;;;21.64;36.97;100362.44;1683354;81;21634;-39
2021/06/04 10:13:52;;;;;;;4.37;1.47;;;;;;;21.79;35.98;100360.88;1710830;81;21123;-38
2021/06/04 10:17:00;;;;;;;5.35;1.50;;;;;;;21.84;34.53;100356.20;1723646;81;21168;-38
2021/06/04 10:19:39;;;;;;;1.82;1.27;;;;;;;21.82;34.18;100357.22;1711982;81;21062;-41
2021/06/04 10:22:27;;;;;;;4.10;1.72;;;;;;;21.73;34.14;100347.84;1728638;81;21089;-39
2021/06/04 10:25:10;;;;;;;4.95;1.25;;;;;;;21.66;35.10;100361.89;1692151;80;21679;-39
2021/06/04 10:27:47;;;;;;;8.60;1.90;;;;;;;21.62;34.70;100362.95;1685732;81;21130;-37
2021/06/04 10:30:34;;;;;;;5.92;1.70;;;;;;;21.55;33.95;100358.84;1763135;78;21062;-39
2021/06/04 10:33:25;;;;;;;5.83;1.40;;;;;;;21.63;34.33;100355.39;1802348;78;21124;-38
2021/06/04 10:35:58;;;;;;;3.52;1.32;;;;;;;21.88;34.56;100360.47;1765277;79;21122;-39
2021/06/04 10:38:48;;;;;;;5.92;1.98;;;;;;;22.12;32.80;100354.97;1790473;77;21101;-38
2021/06/04 10:41:41;;;;;;;1.82;1.42;;;;;;;22.25;33.70;100366.78;1789164;78;21153;-38
2021/06/04 10:44:44;;;;;;;3.83;1.98;;;;;;;22.23;33.89;100358.00;1793662;78;21061;-39
2021/06/04 10:47:45;;;;;;;3.35;1.82;;;;;;;22.12;34.99;100361.63;1750918;79;21703;-38
2021/06/04 10:50:31;;;;;;;4.15;1.52;;;;;;;21.92;34.96;100371.39;1786527;78;21196;-40
2021/06/04 10:53:24;;;;;;;7.58;1.75;;;;;;;21.73;37.32;100369.14;1762479;79;21027;-40
2021/06/04 10:56:16;;;;;;;6.50;1.87;;;;;;;21.59;35.18;100372.89;1779985;78;21220;-38
2021/06/04 10:59:03;;;;;;;5.65;1.60;;;;;;;21.41;36.47;100371.91;1785913;79;21051;-38
2021/06/04 11:01:41;;;;;;;4.58;1.90;;;;;;;21.36;36.62;100364.12;1785017;78;21168;-38
2021/06/04 11:04:23;;;;;;;5.53;1.42;;;;;;;21.55;36.65;100368.16;1780465;80;21033;-39
2021/06/04 11:07:01;;;;;;;3.50;1.65;;;;;;;21.75;37.68;100365.49;1747011;80;21090;-40
2021/06/04 11:09:57;;;;;;;7.00;1.80;;;;;;;21.98;37.89;100357.78;1734082;80;21160;-39
2021/06/04 11:13:12;;;;;;;5.25;1.57;;;;;;;22.02;35.99;100364.67;1733377;80;21107;-39
2021/06/04 11:16:04;;;;;;;11.53;1.75;;;;;;;21.87;34.90;100360.55;1746657;80;21057;-39
2021/06/04 11:19:00;;;;;;;1.80;1.42;;;;;;;21.66;36.77;100365.03;1751477;80;21051;-39
2021/06/04 11:21:34;;;;;;;9.05;1.40;;;;;;;21.50;36.68;100363.50;1691521;83;21118;-39
2021/06/04 11:24:15;;;;;;;2.37;1.62;;;;;;;21.48;35.44;100362.25;1702530;83;21278;-40
2021/06/04 11:26:50;;;;;;;5.58;2.15;;;;;;;21.58;37.10;100360.05;1700314;83;21192;-39
2021/06/04 11:29:30;;;;;;;5.35;1.92;;;;;;;21.71;38.04;100349.25;1680698;83;21073;-40
2021/06/04 11:32:20;;;;;;;2.65;1.60;;;;;;;21.84;36.38;100352.68;1696677;83;21065;-38
2021/06/04 11:35:00;;;;;;;8.53;2.60;;;;;;;22.00;36.49;100346.58;1697269;82;21672;-39
2021/06/04 11:37:39;;;;;;;10.35;1.80;;;;;;;22.15;36.68;100350.38;1713570;83;21080;-39
2021/06/04 11:40:17;;;;;;;10.80;1.92;;;;;;;22.33;37.50;100350.45;1702593;83;21071;-40
2021/06/04 11:42:58;;;;;;;4.03;1.25;;;;;;;22.40;35.61;100359.88;1677095;83;21080;-38
2021/06/04 11:45:26;;;;;;;6.78;1.85;;;;;;;22.33;34.66;100352.64;1719571;82;21700;-39
2021/06/04 11:47:55;;;;;;;5.40;1.55;;;;;;;22.21;35.30;100361.22;1692098;83;21212;-38
2021/06/04 11:50:37;;;;;;;8.10;2.00;;;;;;;22.15;36.68;100355.70;1674694;84;21066;-38
2021/06/04 11:53:35;;;;;;;4.22;1.90;;;;;;;22.17;35.60;100359.63;1660249;83;21592;-39
2021/06/04 11:56:04;;;;;;;4.00;2.08;;;;;;;22.11;37.38;100355.92;1739931;81;21189;-37
2021/06/04 12:02:43;;;;;;;10.15;2.50;;;;;;;22.11;37.45;100360.77;1788472;78;21188;-38
2021/06/04 12:05:22;;;;;;;6.53;1.57;;;;;;;22.03;37.41;100358.87;1796742;77;21534;-39
2021/06/04 12:08:15;;;;;;;6.40;1.90;;;;;;;21.92;36.69;100360.73;1815694;76;21138;-40
2021/06/04 12:10:56;;;;;;;16.12;2.00;;;;;;;21.77;36.02;100362.75;1796678;77;22342;-38
2021/06/04 12:13:50;;;;;;;6.28;1.67;;;;;;;21.60;36.17;100370.16;1838242;77;20972;-39
2021/06/04 12:16:28;;;;;;;5.62;1.40;;;;;;;21.51;35.46;100365.23;1819987;77;21761;-40
2021/06/04 12:19:05;;;;;;;4.85;1.30;;;;;;;21.51;35.93;100357.23;1816032;77;21599;-39
2021/06/04 12:21:52;;;;;;;3.65;0.95;;;;;;;21.62;35.46;100352.31;1797972;75;21209;-38
